x

Buoy E01 - Central Maine Shelf (44032) Wave Buoy

5:04 - Sun 5th Jul 2015 All times are EDT. -4 hours from GMT.

  • Sig Wave height 3.0ft
  • Peak Period 11s
  • Wind
    7mph, 9mph gusts
  • Sea Temp 55°f
  • Aire Temp 62°f
  • Sea Pressure 1016mb
  • Buoy E01 - Central Maine Shelf
  • Buoy E01 - Central Maine Shelf

More Historic Weather Station data

Upgrade to MSW Pro to gain access to the past 30 days of data for over 8000 Wavebouys and Weather Stations around the globe.

Join Pro

Comparision Forecast

View Surf forecast
   
dom 07/05 5:04 3ft 11s 7 9 mph 1016mb 55f 62f
4:04 1ft 3s 9 11 mph 1015.8mb 56f 62f
3:04 1.6ft 6s 11
mph
1015.7mb 56f 61f
2:04 2.5ft 8s 9 11 mph 1015.7mb 56f 60f
1:04 2.5ft 8s 11 13 mph 1015.9mb 56f 61f
12:04 3ft 8s 7
mph
1015.9mb 56f 59f
11:04 2.5ft 8s 7
mph
1015.9mb 55f 58f
10:04 2.5ft 8s 7 9 mph 1016.1mb 55f 58f
9:04 2ft 8s 7 9 mph 1016.3mb 54f 57f
8:04 2.5ft 8s 4 7 mph 1015.7mb 54f 56f
7:04 2.5ft 8s 4 7 mph 1014.8mb 54f 56f
6:04 2.5ft 8s 4 7 mph 1014.7mb 53f 56f
5:04 2ft 8s 7
mph
1014.3mb 54f 56f
4:04 1.6ft 6s 4 7 mph 1013.8mb 54f 56f
3:04 0.7ft  -  4
mph
1013.5mb 54f 57f
2:04 2.5ft 6s 7
mph
1013.7mb 55f 57f
1:04 2.5ft 8s 7 9 mph 1013.6mb 55f 58f
12:04 3.5ft 8s 7
mph
1013.8mb 55f 57f
sáb 07/04 11:04 3.5ft 8s 4 7 mph 1014.1mb 55f 56f
10:04 3.5ft 8s 2
mph
1014.2mb 55f 56f
9:04 3.5ft 8s 4
mph
1013.5mb 55f 56f
8:04 3.5ft 8s 4
mph
1013.8mb 55f 57f
7:04 3.5ft 8s 2 4 mph 1013.6mb 55f 58f
6:04 3.5ft 8s 7
mph
1014mb 55f 58f
5:04 3ft 11s 4 7 mph 1014.6mb 55f 58f
4:04 3ft 11s 9 11 mph 1014.7mb 55f 58f
3:04 3.5ft 11s 2 4 mph 1014.6mb 55f 58f
2:04 3ft 8s 4
mph
1014.8mb 55f 57f
1:04 3.5ft 11s 7
mph
1014.8mb 55f 57f
12:04 3.5ft 8s 7
mph
1015.2mb 54f 57f
11:04 3.5ft 8s 4 7 mph 1015.4mb 54f 58f
10:04 3.5ft 8s 4 7 mph 1015.6mb 54f 57f
9:04 3ft 8s 4
mph
1015.5mb 54f 57f
8:04 3.5ft 11s 2 4 mph 1015.4mb 54f 57f
7:04 3.5ft 8s 4 7 mph 1015.4mb 53f 56f
6:04 3.5ft 11s 2 4 mph 1015.4mb 53f 56f
5:04 3ft 11s 7 11 mph 1015.4mb 53f 56f
4:04 3ft 11s 4 7 mph 1014.9mb 53f 56f
3:04 3.5ft 11s 4 7 mph 1014.7mb 53f 56f
2:04 3ft 11s 9
mph
1014.7mb 53f 57f
1:04 3.5ft 6s 7 9 mph 1014.5mb 55f 58f
12:04 3.5ft 8s 7
mph
1014.4mb 55f 57f
vie 07/03 11:04 4ft 6s 11 13 mph 1014.1mb 55f 59f
10:04 3.5ft 8s 11 13 mph 1013.8mb 55f 59f
9:04 4ft 8s 13 16 mph 1013.6mb 55f 59f
8:04 3.5ft 8s 16 18 mph 1013.3mb 55f 60f
7:04 3.5ft 11s 13 16 mph 1012.7mb 55f 60f
6:04 3.5ft 8s 13 16 mph 1012.5mb 55f 60f
5:04  -   -  16
mph
1012.4mb 55f 62f
4:04 3.5ft 11s 13
mph
1012.3mb 56f 60f
3:04  -   -  11
mph
1012.4mb 56f 59f
2:04  -   -  11 13 mph 1012.1mb 55f 59f
1:04 2.5ft 8s 9 11 mph 1012.1mb 55f 58f
12:04 3.5ft 11s 9 11 mph 1012.1mb 55f 58f
11:04 3ft 8s 7
mph
1012.5mb 55f 57f
10:04 3.5ft 8s 7
mph
1012.7mb 55f 57f
9:04 3.5ft 8s 4
mph
1012.6mb 54f 57f
8:04 3.5ft 8s 2 4 mph 1012.4mb 54f 58f
7:04 3.5ft 8s 4
mph
1012.1mb 53f 56f
6:04 3.5ft 8s 4 7 mph 1011.9mb 53f 56f
5:04 3.5ft 8s 4 7 mph 1011.6mb 53f 56f
4:04 3ft 8s 7
mph
1011.4mb 54f 57f
3:04 3ft 8s 4 7 mph 1011.1mb 54f 57f
2:04 3ft 8s 7
mph
1010.7mb 54f 57f
1:04 2.5ft 8s 4
mph
1010.7mb 55f 58f
12:04 4ft 8s 4
mph
1010.9mb 55f 57f
jue 07/02 11:04 3.5ft 8s 7
mph
1011.1mb 55f 57f
10:04 3.5ft 8s 2 4 mph 1011.1mb 55f 57f
9:04 4.5ft 8s 7
mph
1010.8mb 55f 56f
8:04 4.5ft 8s 9
mph
1010.3mb 53f 57f
7:04 4.5ft 8s 9 11 mph 1010.1mb 53f 57f
6:04 4.5ft 8s 9 11 mph 1009.9mb 53f 58f
5:04 3.5ft 8s 9 11 mph 1010mb 53f 57f
4:04 3.5ft 8s 11 13 mph 1010.1mb 53f 58f
3:04 4ft 11s 7 9 mph 1010.1mb 53f 57f
2:04 4ft 8s 13 16 mph 1009.5mb 52f 57f
1:04 3.5ft 6s 13
mph
1009.8mb 52f 56f
12:04 4ft 6s 11 13 mph 1009.6mb 51f 56f
11:04 4ft 6s 11 13 mph 1009.7mb 52f 55f
10:04 5ft 8s 7 9 mph 1009.1mb 52f 54f
9:04 5ft 8s 4 7 mph 1008.9mb 51f 54f
8:04 4ft 6s 7 9 mph 1008.7mb 51f 54f
7:04 4ft 5s 7
mph
1008.8mb 51f 55f
6:04 4ft 5s 11
mph
1008.1mb 50f 55f
5:04 4ft 5s 13 16 mph 1007.5mb 50f 55f
4:04 3.5ft 5s 16 18 mph 1006.9mb 51f 55f
3:04 3.5ft 5s 16 18 mph 1006.3mb 51f 56f
2:04 3.5ft 5s 16 18 mph 1005.9mb 51f 56f
1:04 2.5ft 5s 13 16 mph 1005.5mb 51f 56f
12:04 3ft 5s 9 11 mph 1005.5mb 52f 55f
mié 07/01 11:04 3.5ft 5s 2 4 mph 1005.4mb 51f 55f